sensor_id;sensor_type;location;lat;lon;timestamp;P1;durP1;ratioP1;P2;durP2;ratioP2
37049;SDS011;22958;51.232;6.826;2023-08-12T00:01:39;53.43;;;28.50;;
37049;SDS011;22958;51.232;6.826;2023-08-12T00:04:05;49.95;;;28.00;;
37049;SDS011;22958;51.232;6.826;2023-08-12T00:06:31;50.15;;;27.52;;
37049;SDS011;22958;51.232;6.826;2023-08-12T00:08:56;46.60;;;27.87;;
37049;SDS011;22958;51.232;6.826;2023-08-12T00:11:22;46.47;;;27.07;;
37049;SDS011;22958;51.232;6.826;2023-08-12T00:13:47;52.20;;;28.87;;
37049;SDS011;22958;51.232;6.826;2023-08-12T00:16:13;48.00;;;28.53;;
37049;SDS011;22958;51.232;6.826;2023-08-12T00:18:39;47.37;;;27.23;;
37049;SDS011;22958;51.232;6.826;2023-08-12T00:21:06;44.40;;;25.50;;
37049;SDS011;22958;51.232;6.826;2023-08-12T00:23:36;51.58;;;27.08;;
37049;SDS011;22958;51.232;6.826;2023-08-12T00:26:04;51.08;;;28.23;;
37049;SDS011;22958;51.232;6.826;2023-08-12T00:28:30;45.97;;;25.90;;
37049;SDS011;22958;51.232;6.826;2023-08-12T00:30:55;52.53;;;27.23;;
37049;SDS011;22958;51.232;6.826;2023-08-12T00:33:21;43.87;;;27.57;;
37049;SDS011;22958;51.232;6.826;2023-08-12T00:35:46;45.77;;;27.80;;
37049;SDS011;22958;51.232;6.826;2023-08-12T00:38:12;47.50;;;26.90;;
37049;SDS011;22958;51.232;6.826;2023-08-12T00:40:37;51.33;;;28.20;;
37049;SDS011;22958;51.232;6.826;2023-08-12T00:43:03;45.37;;;28.37;;
37049;SDS011;22958;51.232;6.826;2023-08-12T00:45:28;46.07;;;28.00;;
37049;SDS011;22958;51.232;6.826;2023-08-12T00:47:54;51.53;;;29.42;;
37049;SDS011;22958;51.232;6.826;2023-08-12T00:50:20;57.77;;;31.57;;
37049;SDS011;22958;51.232;6.826;2023-08-12T00:55:12;56.38;;;34.03;;
37049;SDS011;22958;51.232;6.826;2023-08-12T00:57:38;56.63;;;32.70;;
37049;SDS011;22958;51.232;6.826;2023-08-12T01:00:04;60.70;;;32.43;;
37049;SDS011;22958;51.232;6.826;2023-08-12T01:02:30;58.72;;;32.92;;
37049;SDS011;22958;51.232;6.826;2023-08-12T01:04:56;53.47;;;31.85;;
37049;SDS011;22958;51.232;6.826;2023-08-12T01:07:22;50.17;;;30.02;;
37049;SDS011;22958;51.232;6.826;2023-08-12T01:09:48;50.23;;;28.83;;
37049;SDS011;22958;51.232;6.826;2023-08-12T01:12:16;49.87;;;30.30;;
37049;SDS011;22958;51.232;6.826;2023-08-12T01:14:51;49.38;;;28.50;;
37049;SDS011;22958;51.232;6.826;2023-08-12T01:17:33;52.55;;;28.48;;
37049;SDS011;22958;51.232;6.826;2023-08-12T01:20:01;55.50;;;29.88;;
37049;SDS011;22958;51.232;6.826;2023-08-12T01:22:33;53.08;;;29.40;;
37049;SDS011;22958;51.232;6.826;2023-08-12T01:25:04;60.13;;;30.85;;
37049;SDS011;22958;51.232;6.826;2023-08-12T01:27:30;68.88;;;33.75;;
37049;SDS011;22958;51.232;6.826;2023-08-12T01:29:55;58.47;;;29.47;;
37049;SDS011;22958;51.232;6.826;2023-08-12T01:35:09;50.70;;;29.63;;
37049;SDS011;22958;51.232;6.826;2023-08-12T01:37:42;45.97;;;26.50;;
37049;SDS011;22958;51.232;6.826;2023-08-12T01:40:08;46.85;;;28.15;;
37049;SDS011;22958;51.232;6.826;2023-08-12T01:42:36;46.85;;;27.42;;
37049;SDS011;22958;51.232;6.826;2023-08-12T01:45:03;49.28;;;27.27;;
37049;SDS011;22958;51.232;6.826;2023-08-12T01:47:30;47.05;;;27.33;;
37049;SDS011;22958;51.232;6.826;2023-08-12T01:49:57;51.08;;;27.75;;
37049;SDS011;22958;51.232;6.826;2023-08-12T01:52:22;43.77;;;25.73;;
37049;SDS011;22958;51.232;6.826;2023-08-12T01:54:48;47.20;;;27.27;;
37049;SDS011;22958;51.232;6.826;2023-08-12T01:57:13;47.67;;;25.77;;
37049;SDS011;22958;51.232;6.826;2023-08-12T01:59:39;43.30;;;25.13;;
37049;SDS011;22958;51.232;6.826;2023-08-12T02:02:04;44.80;;;26.60;;
37049;SDS011;22958;51.232;6.826;2023-08-12T02:04:30;41.77;;;25.37;;
37049;SDS011;22958;51.232;6.826;2023-08-12T02:06:56;43.13;;;24.60;;
37049;SDS011;22958;51.232;6.826;2023-08-12T02:09:22;38.83;;;24.25;;
37049;SDS011;22958;51.232;6.826;2023-08-12T02:11:48;42.15;;;24.45;;
37049;SDS011;22958;51.232;6.826;2023-08-12T02:14:14;41.05;;;25.17;;
37049;SDS011;22958;51.232;6.826;2023-08-12T02:16:40;35.10;;;21.52;;
37049;SDS011;22958;51.232;6.826;2023-08-12T02:19:06;40.83;;;23.70;;
37049;SDS011;22958;51.232;6.826;2023-08-12T02:21:31;38.80;;;21.03;;
37049;SDS011;22958;51.232;6.826;2023-08-12T02:23:57;40.90;;;24.43;;
37049;SDS011;22958;51.232;6.826;2023-08-12T02:26:23;39.13;;;22.17;;
37049;SDS011;22958;51.232;6.826;2023-08-12T02:28:48;39.00;;;22.40;;
37049;SDS011;22958;51.232;6.826;2023-08-12T02:31:15;40.53;;;22.20;;
37049;SDS011;22958;51.232;6.826;2023-08-12T02:33:40;40.50;;;23.38;;
37049;SDS011;22958;51.232;6.826;2023-08-12T02:36:06;40.00;;;24.20;;
37049;SDS011;22958;51.232;6.826;2023-08-12T02:38:32;41.17;;;23.97;;
37049;SDS011;22958;51.232;6.826;2023-08-12T02:40:57;33.67;;;22.10;;
37049;SDS011;22958;51.232;6.826;2023-08-12T02:43:23;41.33;;;22.13;;
37049;SDS011;22958;51.232;6.826;2023-08-12T02:45:48;46.60;;;24.93;;
37049;SDS011;22958;51.232;6.826;2023-08-12T02:48:14;36.93;;;24.03;;
37049;SDS011;22958;51.232;6.826;2023-08-12T02:50:39;47.30;;;24.53;;
37049;SDS011;22958;51.232;6.826;2023-08-12T02:53:05;44.63;;;27.10;;
37049;SDS011;22958;51.232;6.826;2023-08-12T02:55:31;50.25;;;26.55;;
37049;SDS011;22958;51.232;6.826;2023-08-12T02:57:57;51.25;;;28.05;;
37049;SDS011;22958;51.232;6.826;2023-08-12T03:00:26;44.17;;;26.70;;
37049;SDS011;22958;51.232;6.826;2023-08-12T03:02:52;46.75;;;27.52;;
37049;SDS011;22958;51.232;6.826;2023-08-12T03:05:18;49.78;;;28.98;;
37049;SDS011;22958;51.232;6.826;2023-08-12T03:07:44;47.60;;;28.45;;
37049;SDS011;22958;51.232;6.826;2023-08-12T03:10:10;49.10;;;26.87;;
37049;SDS011;22958;51.232;6.826;2023-08-12T03:12:36;46.07;;;26.80;;
37049;SDS011;22958;51.232;6.826;2023-08-12T03:15:02;50.47;;;27.73;;
37049;SDS011;22958;51.232;6.826;2023-08-12T03:19:53;46.85;;;23.80;;
37049;SDS011;22958;51.232;6.826;2023-08-12T03:22:19;43.63;;;23.00;;
37049;SDS011;22958;51.232;6.826;2023-08-12T03:24:45;43.78;;;24.67;;
37049;SDS011;22958;51.232;6.826;2023-08-12T03:27:11;46.17;;;21.97;;
37049;SDS011;22958;51.232;6.826;2023-08-12T03:29:36;36.33;;;20.43;;
37049;SDS011;22958;51.232;6.826;2023-08-12T03:32:02;40.93;;;22.60;;
37049;SDS011;22958;51.232;6.826;2023-08-12T03:34:28;36.83;;;20.80;;
37049;SDS011;22958;51.232;6.826;2023-08-12T03:36:56;39.17;;;20.42;;
37049;SDS011;22958;51.232;6.826;2023-08-12T03:39:22;36.50;;;20.47;;
37049;SDS011;22958;51.232;6.826;2023-08-12T03:41:47;36.23;;;21.63;;
37049;SDS011;22958;51.232;6.826;2023-08-12T03:44:15;32.83;;;19.63;;
37049;SDS011;22958;51.232;6.826;2023-08-12T03:46:40;32.83;;;20.53;;
37049;SDS011;22958;51.232;6.826;2023-08-12T03:49:06;30.97;;;17.80;;
37049;SDS011;22958;51.232;6.826;2023-08-12T03:51:32;41.10;;;18.90;;
37049;SDS011;22958;51.232;6.826;2023-08-12T03:53:57;37.10;;;21.07;;
37049;SDS011;22958;51.232;6.826;2023-08-12T03:56:23;41.83;;;20.08;;
37049;SDS011;22958;51.232;6.826;2023-08-12T03:58:49;34.33;;;20.87;;
37049;SDS011;22958;51.232;6.826;2023-08-12T04:01:15;31.43;;;19.30;;
37049;SDS011;22958;51.232;6.826;2023-08-12T04:03:40;33.27;;;19.30;;
37049;SDS011;22958;51.232;6.826;2023-08-12T04:06:06;35.40;;;18.97;;
37049;SDS011;22958;51.232;6.826;2023-08-12T04:08:31;36.00;;;18.00;;
37049;SDS011;22958;51.232;6.826;2023-08-12T04:10:58;30.05;;;17.90;;
37049;SDS011;22958;51.232;6.826;2023-08-12T04:13:24;37.60;;;19.43;;
37049;SDS011;22958;51.232;6.826;2023-08-12T04:15:50;32.83;;;17.50;;
37049;SDS011;22958;51.232;6.826;2023-08-12T04:18:18;33.08;;;16.42;;
37049;SDS011;22958;51.232;6.826;2023-08-12T04:20:44;29.65;;;15.98;;
37049;SDS011;22958;51.232;6.826;2023-08-12T04:23:14;32.78;;;16.77;;
37049;SDS011;22958;51.232;6.826;2023-08-12T04:25:40;24.48;;;15.27;;
37049;SDS011;22958;51.232;6.826;2023-08-12T04:28:08;27.42;;;16.20;;
37049;SDS011;22958;51.232;6.826;2023-08-12T04:30:34;30.83;;;16.60;;
37049;SDS011;22958;51.232;6.826;2023-08-12T04:33:00;29.03;;;16.23;;
37049;SDS011;22958;51.232;6.826;2023-08-12T04:35:26;31.67;;;17.37;;
37049;SDS011;22958;51.232;6.826;2023-08-12T04:37:51;33.90;;;17.03;;
37049;SDS011;22958;51.232;6.826;2023-08-12T04:40:17;33.87;;;17.50;;
37049;SDS011;22958;51.232;6.826;2023-08-12T04:42:42;29.07;;;16.23;;
37049;SDS011;22958;51.232;6.826;2023-08-12T04:45:08;31.00;;;17.83;;
37049;SDS011;22958;51.232;6.826;2023-08-12T04:47:34;27.55;;;16.48;;
37049;SDS011;22958;51.232;6.826;2023-08-12T04:49:59;30.57;;;16.07;;
37049;SDS011;22958;51.232;6.826;2023-08-12T04:52:25;36.57;;;16.40;;
37049;SDS011;22958;51.232;6.826;2023-08-12T04:54:52;28.70;;;16.13;;
37049;SDS011;22958;51.232;6.826;2023-08-12T04:57:18;28.95;;;15.73;;
37049;SDS011;22958;51.232;6.826;2023-08-12T04:59:44;33.40;;;16.23;;
37049;SDS011;22958;51.232;6.826;2023-08-12T05:02:09;25.87;;;15.23;;
37049;SDS011;22958;51.232;6.826;2023-08-12T05:04:35;28.30;;;14.67;;
37049;SDS011;22958;51.232;6.826;2023-08-12T05:07:00;28.40;;;14.13;;
37049;SDS011;22958;51.232;6.826;2023-08-12T05:09:26;24.13;;;14.23;;
37049;SDS011;22958;51.232;6.826;2023-08-12T05:11:52;25.30;;;13.33;;
37049;SDS011;22958;51.232;6.826;2023-08-12T05:14:17;41.00;;;14.67;;
37049;SDS011;22958;51.232;6.826;2023-08-12T05:16:43;30.40;;;13.90;;
37049;SDS011;22958;51.232;6.826;2023-08-12T05:19:08;27.10;;;13.77;;
37049;SDS011;22958;51.232;6.826;2023-08-12T05:21:34;23.23;;;14.17;;
37049;SDS011;22958;51.232;6.826;2023-08-12T05:23:59;24.80;;;13.63;;
37049;SDS011;22958;51.232;6.826;2023-08-12T05:26:25;26.30;;;14.03;;
37049;SDS011;22958;51.232;6.826;2023-08-12T05:28:50;23.77;;;13.70;;
37049;SDS011;22958;51.232;6.826;2023-08-12T05:31:16;27.13;;;14.67;;
37049;SDS011;22958;51.232;6.826;2023-08-12T05:33:42;20.30;;;13.97;;
37049;SDS011;22958;51.232;6.826;2023-08-12T05:36:07;29.17;;;14.93;;
37049;SDS011;22958;51.232;6.826;2023-08-12T05:38:34;27.25;;;14.10;;
37049;SDS011;22958;51.232;6.826;2023-08-12T05:40:59;28.87;;;15.00;;
37049;SDS011;22958;51.232;6.826;2023-08-12T05:43:25;25.50;;;14.83;;
37049;SDS011;22958;51.232;6.826;2023-08-12T05:45:50;21.03;;;13.60;;
37049;SDS011;22958;51.232;6.826;2023-08-12T05:48:16;23.23;;;13.83;;
37049;SDS011;22958;51.232;6.826;2023-08-12T05:50:41;30.10;;;16.07;;
37049;SDS011;22958;51.232;6.826;2023-08-12T05:53:07;29.33;;;15.65;;
37049;SDS011;22958;51.232;6.826;2023-08-12T05:55:33;26.33;;;15.97;;
37049;SDS011;22958;51.232;6.826;2023-08-12T05:57:59;27.33;;;16.63;;
37049;SDS011;22958;51.232;6.826;2023-08-12T06:00:25;29.90;;;17.30;;
37049;SDS011;22958;51.232;6.826;2023-08-12T06:02:51;29.03;;;18.77;;
37049;SDS011;22958;51.232;6.826;2023-08-12T06:05:16;36.47;;;18.70;;
37049;SDS011;22958;51.232;6.826;2023-08-12T06:07:42;32.00;;;19.07;;
37049;SDS011;22958;51.232;6.826;2023-08-12T06:10:07;31.80;;;19.13;;
37049;SDS011;22958;51.232;6.826;2023-08-12T06:12:33;39.60;;;22.33;;
37049;SDS011;22958;51.232;6.826;2023-08-12T06:14:59;41.23;;;21.90;;
37049;SDS011;22958;51.232;6.826;2023-08-12T06:17:26;45.60;;;23.33;;
37049;SDS011;22958;51.232;6.826;2023-08-12T06:19:51;35.03;;;22.50;;
37049;SDS011;22958;51.232;6.826;2023-08-12T06:22:17;37.97;;;23.87;;
37049;SDS011;22958;51.232;6.826;2023-08-12T06:24:42;44.43;;;24.87;;
37049;SDS011;22958;51.232;6.826;2023-08-12T06:27:08;43.27;;;23.43;;
37049;SDS011;22958;51.232;6.826;2023-08-12T06:29:33;39.57;;;23.73;;
37049;SDS011;22958;51.232;6.826;2023-08-12T06:31:59;45.07;;;25.83;;
37049;SDS011;22958;51.232;6.826;2023-08-12T06:34:24;47.43;;;24.97;;
37049;SDS011;22958;51.232;6.826;2023-08-12T06:36:50;43.17;;;23.83;;
37049;SDS011;22958;51.232;6.826;2023-08-12T06:39:15;38.00;;;23.10;;
37049;SDS011;22958;51.232;6.826;2023-08-12T06:41:41;36.47;;;22.87;;
37049;SDS011;22958;51.232;6.826;2023-08-12T06:44:06;37.90;;;23.10;;
37049;SDS011;22958;51.232;6.826;2023-08-12T06:46:32;35.43;;;21.20;;
37049;SDS011;22958;51.232;6.826;2023-08-12T06:48:58;36.67;;;22.73;;
37049;SDS011;22958;51.232;6.826;2023-08-12T06:53:49;33.10;;;22.25;;
37049;SDS011;22958;51.232;6.826;2023-08-12T06:56:15;39.00;;;22.87;;
37049;SDS011;22958;51.232;6.826;2023-08-12T06:58:40;40.13;;;22.60;;
37049;SDS011;22958;51.232;6.826;2023-08-12T07:01:06;30.67;;;20.13;;
37049;SDS011;22958;51.232;6.826;2023-08-12T07:03:31;34.67;;;21.57;;
37049;SDS011;22958;51.232;6.826;2023-08-12T07:05:57;28.27;;;17.50;;
37049;SDS011;22958;51.232;6.826;2023-08-12T07:08:23;27.20;;;17.23;;
37049;SDS011;22958;51.232;6.826;2023-08-12T07:10:49;34.07;;;17.97;;
37049;SDS011;22958;51.232;6.826;2023-08-12T07:13:14;29.10;;;17.20;;
37049;SDS011;22958;51.232;6.826;2023-08-12T07:15:40;21.30;;;15.57;;
37049;SDS011;22958;51.232;6.826;2023-08-12T07:18:05;24.83;;;16.43;;
37049;SDS011;22958;51.232;6.826;2023-08-12T07:20:31;27.20;;;16.23;;
37049;SDS011;22958;51.232;6.826;2023-08-12T07:22:57;29.30;;;15.80;;
37049;SDS011;22958;51.232;6.826;2023-08-12T07:25:22;21.60;;;15.33;;
37049;SDS011;22958;51.232;6.826;2023-08-12T07:27:48;25.50;;;15.90;;
37049;SDS011;22958;51.232;6.826;2023-08-12T07:30:13;23.20;;;14.63;;
37049;SDS011;22958;51.232;6.826;2023-08-12T07:32:39;27.77;;;15.57;;
37049;SDS011;22958;51.232;6.826;2023-08-12T07:35:04;22.43;;;14.40;;
37049;SDS011;22958;51.232;6.826;2023-08-12T07:37:33;23.83;;;14.40;;
37049;SDS011;22958;51.232;6.826;2023-08-12T07:39:58;22.27;;;14.63;;
37049;SDS011;22958;51.232;6.826;2023-08-12T07:42:24;23.07;;;13.90;;
37049;SDS011;22958;51.232;6.826;2023-08-12T07:44:50;19.77;;;12.97;;
37049;SDS011;22958;51.232;6.826;2023-08-12T07:47:15;21.20;;;13.23;;
37049;SDS011;22958;51.232;6.826;2023-08-12T07:49:41;17.73;;;12.23;;
37049;SDS011;22958;51.232;6.826;2023-08-12T07:52:08;16.20;;;11.68;;
37049;SDS011;22958;51.232;6.826;2023-08-12T07:54:33;19.90;;;11.77;;
37049;SDS011;22958;51.232;6.826;2023-08-12T07:56:59;20.60;;;11.60;;
37049;SDS011;22958;51.232;6.826;2023-08-12T07:59:24;18.70;;;11.23;;
37049;SDS011;22958;51.232;6.826;2023-08-12T08:01:50;23.52;;;11.65;;
37049;SDS011;22958;51.232;6.826;2023-08-12T08:04:16;17.63;;;10.35;;
37049;SDS011;22958;51.232;6.826;2023-08-12T08:06:42;16.53;;;10.93;;
37049;SDS011;22958;51.232;6.826;2023-08-12T08:09:07;16.60;;;9.33;;
37049;SDS011;22958;51.232;6.826;2023-08-12T08:11:33;19.60;;;10.17;;
37049;SDS011;22958;51.232;6.826;2023-08-12T08:13:59;21.45;;;9.93;;
37049;SDS011;22958;51.232;6.826;2023-08-12T08:16:24;42.73;;;10.33;;
37049;SDS011;22958;51.232;6.826;2023-08-12T08:18:51;19.48;;;8.70;;
37049;SDS011;22958;51.232;6.826;2023-08-12T08:21:16;12.80;;;8.83;;
37049;SDS011;22958;51.232;6.826;2023-08-12T08:23:42;14.37;;;9.07;;
37049;SDS011;22958;51.232;6.826;2023-08-12T08:26:08;19.95;;;8.65;;
37049;SDS011;22958;51.232;6.826;2023-08-12T08:31:00;15.35;;;9.10;;
37049;SDS011;22958;51.232;6.826;2023-08-12T08:33:26;12.35;;;8.18;;
37049;SDS011;22958;51.232;6.826;2023-08-12T08:35:52;17.20;;;8.60;;
37049;SDS011;22958;51.232;6.826;2023-08-12T08:40:44;11.55;;;7.80;;
37049;SDS011;22958;51.232;6.826;2023-08-12T08:43:09;9.57;;;7.33;;
37049;SDS011;22958;51.232;6.826;2023-08-12T08:45:37;14.45;;;8.52;;
37049;SDS011;22958;51.232;6.826;2023-08-12T08:48:03;13.60;;;7.47;;
37049;SDS011;22958;51.232;6.826;2023-08-12T08:50:31;12.50;;;8.02;;
37049;SDS011;22958;51.232;6.826;2023-08-12T08:52:57;13.48;;;8.45;;
37049;SDS011;22958;51.232;6.826;2023-08-12T08:55:22;11.77;;;8.47;;
37049;SDS011;22958;51.232;6.826;2023-08-12T08:57:49;13.95;;;6.85;;
37049;SDS011;22958;51.232;6.826;2023-08-12T09:00:15;16.90;;;6.40;;
37049;SDS011;22958;51.232;6.826;2023-08-12T09:05:08;7.20;;;5.18;;
37049;SDS011;22958;51.232;6.826;2023-08-12T09:07:36;10.38;;;5.57;;
37049;SDS011;22958;51.232;6.826;2023-08-12T09:10:02;10.90;;;5.22;;
37049;SDS011;22958;51.232;6.826;2023-08-12T09:12:29;10.50;;;4.82;;
37049;SDS011;22958;51.232;6.826;2023-08-12T09:14:55;11.75;;;4.50;;
37049;SDS011;22958;51.232;6.826;2023-08-12T09:17:20;9.87;;;4.60;;
37049;SDS011;22958;51.232;6.826;2023-08-12T09:19:46;10.63;;;4.87;;
37049;SDS011;22958;51.232;6.826;2023-08-12T09:22:12;9.37;;;5.23;;
37049;SDS011;22958;51.232;6.826;2023-08-12T09:24:37;8.73;;;4.97;;
37049;SDS011;22958;51.232;6.826;2023-08-12T09:27:03;7.33;;;4.67;;
37049;SDS011;22958;51.232;6.826;2023-08-12T09:29:33;6.53;;;4.45;;
37049;SDS011;22958;51.232;6.826;2023-08-12T09:32:32;12.25;;;3.95;;
37049;SDS011;22958;51.232;6.826;2023-08-12T09:34:51;9.52;;;3.90;;
37049;SDS011;22958;51.232;6.826;2023-08-12T09:37:21;9.68;;;4.28;;
37049;SDS011;22958;51.232;6.826;2023-08-12T09:39:48;5.47;;;3.40;;
37049;SDS011;22958;51.232;6.826;2023-08-12T09:42:15;13.70;;;4.10;;
37049;SDS011;22958;51.232;6.826;2023-08-12T09:44:41;5.85;;;3.53;;
37049;SDS011;22958;51.232;6.826;2023-08-12T09:47:07;5.43;;;3.17;;
37049;SDS011;22958;51.232;6.826;2023-08-12T09:49:33;8.20;;;3.50;;
37049;SDS011;22958;51.232;6.826;2023-08-12T09:52:00;8.15;;;3.40;;
37049;SDS011;22958;51.232;6.826;2023-08-12T09:54:27;6.70;;;3.50;;
37049;SDS011;22958;51.232;6.826;2023-08-12T09:56:55;7.03;;;3.20;;
37049;SDS011;22958;51.232;6.826;2023-08-12T09:59:24;4.20;;;2.30;;
37049;SDS011;22958;51.232;6.826;2023-08-12T10:01:52;4.82;;;2.45;;
37049;SDS011;22958;51.232;6.826;2023-08-12T10:04:21;4.93;;;2.00;;
37049;SDS011;22958;51.232;6.826;2023-08-12T10:06:49;4.63;;;2.20;;
37049;SDS011;22958;51.232;6.826;2023-08-12T10:09:15;3.80;;;2.10;;
37049;SDS011;22958;51.232;6.826;2023-08-12T10:11:43;4.35;;;1.92;;
37049;SDS011;22958;51.232;6.826;2023-08-12T10:14:10;3.75;;;1.75;;
37049;SDS011;22958;51.232;6.826;2023-08-12T10:16:37;4.57;;;1.90;;
37049;SDS011;22958;51.232;6.826;2023-08-12T10:21:30;6.45;;;1.75;;
37049;SDS011;22958;51.232;6.826;2023-08-12T10:23:57;6.78;;;1.60;;
37049;SDS011;22958;51.232;6.826;2023-08-12T10:26:27;1.90;;;1.40;;
37049;SDS011;22958;51.232;6.826;2023-08-12T10:28:53;5.15;;;1.55;;
37049;SDS011;22958;51.232;6.826;2023-08-12T10:31:19;6.93;;;1.60;;
37049;SDS011;22958;51.232;6.826;2023-08-12T10:33:45;3.42;;;1.63;;
37049;SDS011;22958;51.232;6.826;2023-08-12T10:36:14;2.65;;;1.33;;
37049;SDS011;22958;51.232;6.826;2023-08-12T10:38:40;7.28;;;1.77;;
37049;SDS011;22958;51.232;6.826;2023-08-12T10:43:48;2.83;;;1.27;;
37049;SDS011;22958;51.232;6.826;2023-08-12T10:46:28;2.05;;;1.45;;
37049;SDS011;22958;51.232;6.826;2023-08-12T10:49:04;4.78;;;1.83;;
37049;SDS011;22958;51.232;6.826;2023-08-12T10:51:47;4.72;;;2.08;;
37049;SDS011;22958;51.232;6.826;2023-08-12T10:54:23;5.80;;;2.33;;
37049;SDS011;22958;51.232;6.826;2023-08-12T11:02:17;4.70;;;1.85;;
37049;SDS011;22958;51.232;6.826;2023-08-12T11:04:43;4.30;;;1.88;;
37049;SDS011;22958;51.232;6.826;2023-08-12T11:07:15;5.53;;;1.95;;
37049;SDS011;22958;51.232;6.826;2023-08-12T11:09:45;2.30;;;1.52;;
37049;SDS011;22958;51.232;6.826;2023-08-12T11:12:17;3.65;;;1.50;;
37049;SDS011;22958;51.232;6.826;2023-08-12T11:14:53;3.10;;;1.60;;
37049;SDS011;22958;51.232;6.826;2023-08-12T11:17:19;4.20;;;2.00;;
37049;SDS011;22958;51.232;6.826;2023-08-12T11:19:44;6.50;;;2.10;;
37049;SDS011;22958;51.232;6.826;2023-08-12T11:22:10;4.95;;;1.90;;
37049;SDS011;22958;51.232;6.826;2023-08-12T11:24:39;3.67;;;2.10;;
37049;SDS011;22958;51.232;6.826;2023-08-12T11:27:06;2.08;;;1.60;;
37049;SDS011;22958;51.232;6.826;2023-08-12T11:29:35;3.72;;;1.60;;
37049;SDS011;22958;51.232;6.826;2023-08-12T11:32:02;4.07;;;1.40;;
37049;SDS011;22958;51.232;6.826;2023-08-12T11:34:28;1.25;;;0.98;;
37049;SDS011;22958;51.232;6.826;2023-08-12T11:36:54;2.90;;;1.42;;
37049;SDS011;22958;51.232;6.826;2023-08-12T11:39:21;1.42;;;0.80;;
37049;SDS011;22958;51.232;6.826;2023-08-12T11:41:48;2.05;;;0.70;;
37049;SDS011;22958;51.232;6.826;2023-08-12T11:44:15;1.75;;;0.73;;
37049;SDS011;22958;51.232;6.826;2023-08-12T11:49:07;3.65;;;1.35;;
37049;SDS011;22958;51.232;6.826;2023-08-12T11:51:33;2.50;;;1.10;;
37049;SDS011;22958;51.232;6.826;2023-08-12T11:53:59;2.15;;;0.93;;
37049;SDS011;22958;51.232;6.826;2023-08-12T11:56:26;4.75;;;1.05;;
37049;SDS011;22958;51.232;6.826;2023-08-12T11:58:52;1.73;;;0.80;;
37049;SDS011;22958;51.232;6.826;2023-08-12T12:01:21;2.63;;;1.05;;
37049;SDS011;22958;51.232;6.826;2023-08-12T12:03:51;1.88;;;0.90;;
37049;SDS011;22958;51.232;6.826;2023-08-12T12:06:17;1.90;;;1.00;;
37049;SDS011;22958;51.232;6.826;2023-08-12T12:08:52;4.93;;;1.00;;
37049;SDS011;22958;51.232;6.826;2023-08-12T12:11:18;1.42;;;0.82;;
37049;SDS011;22958;51.232;6.826;2023-08-12T12:13:45;2.13;;;0.80;;
37049;SDS011;22958;51.232;6.826;2023-08-12T12:16:12;2.22;;;1.02;;
37049;SDS011;22958;51.232;6.826;2023-08-12T12:18:38;2.47;;;1.20;;
37049;SDS011;22958;51.232;6.826;2023-08-12T12:21:03;3.08;;;1.13;;
37049;SDS011;22958;51.232;6.826;2023-08-12T12:23:29;4.90;;;1.10;;
37049;SDS011;22958;51.232;6.826;2023-08-12T12:28:22;1.88;;;0.85;;
37049;SDS011;22958;51.232;6.826;2023-08-12T12:30:47;1.60;;;0.90;;
37049;SDS011;22958;51.232;6.826;2023-08-12T12:33:13;1.63;;;1.10;;
37049;SDS011;22958;51.232;6.826;2023-08-12T12:35:38;1.33;;;0.97;;
37049;SDS011;22958;51.232;6.826;2023-08-12T12:40:30;2.85;;;1.00;;
37049;SDS011;22958;51.232;6.826;2023-08-12T12:42:56;3.03;;;2.40;;
37049;SDS011;22958;51.232;6.826;2023-08-12T12:45:22;3.25;;;2.95;;
37049;SDS011;22958;51.232;6.826;2023-08-12T12:47:48;3.00;;;2.63;;
37049;SDS011;22958;51.232;6.826;2023-08-12T12:50:13;4.73;;;2.97;;
37049;SDS011;22958;51.232;6.826;2023-08-12T12:52:39;3.57;;;2.97;;
37049;SDS011;22958;51.232;6.826;2023-08-12T12:55:04;4.60;;;3.30;;
37049;SDS011;22958;51.232;6.826;2023-08-12T12:57:30;3.92;;;3.47;;
37049;SDS011;22958;51.232;6.826;2023-08-12T12:59:56;4.50;;;3.50;;
37049;SDS011;22958;51.232;6.826;2023-08-12T13:02:21;6.20;;;4.17;;
37049;SDS011;22958;51.232;6.826;2023-08-12T13:04:47;5.95;;;4.10;;
37049;SDS011;22958;51.232;6.826;2023-08-12T13:07:14;8.57;;;5.15;;
37049;SDS011;22958;51.232;6.826;2023-08-12T13:09:40;6.07;;;4.97;;
37049;SDS011;22958;51.232;6.826;2023-08-12T13:12:06;12.90;;;6.30;;
37049;SDS011;22958;51.232;6.826;2023-08-12T13:14:31;10.47;;;6.43;;
37049;SDS011;22958;51.232;6.826;2023-08-12T13:16:57;7.40;;;5.53;;
37049;SDS011;22958;51.232;6.826;2023-08-12T13:19:22;8.23;;;6.07;;
37049;SDS011;22958;51.232;6.826;2023-08-12T13:21:48;13.00;;;6.20;;
37049;SDS011;22958;51.232;6.826;2023-08-12T13:24:13;8.53;;;6.23;;
37049;SDS011;22958;51.232;6.826;2023-08-12T13:29:05;7.90;;;5.60;;
37049;SDS011;22958;51.232;6.826;2023-08-12T13:31:31;6.40;;;5.40;;
37049;SDS011;22958;51.232;6.826;2023-08-12T13:33:57;6.23;;;5.60;;
37049;SDS011;22958;51.232;6.826;2023-08-12T13:36:22;7.10;;;4.93;;
37049;SDS011;22958;51.232;6.826;2023-08-12T13:38:48;7.30;;;4.95;;
37049;SDS011;22958;51.232;6.826;2023-08-12T13:41:14;6.03;;;4.28;;
37049;SDS011;22958;51.232;6.826;2023-08-12T13:46:06;7.20;;;5.20;;
37049;SDS011;22958;51.232;6.826;2023-08-12T13:48:32;6.87;;;4.97;;
37049;SDS011;22958;51.232;6.826;2023-08-12T13:50:57;11.23;;;5.73;;
37049;SDS011;22958;51.232;6.826;2023-08-12T13:53:23;5.77;;;4.83;;
37049;SDS011;22958;51.232;6.826;2023-08-12T13:55:49;7.03;;;4.75;;
37049;SDS011;22958;51.232;6.826;2023-08-12T13:58:14;8.15;;;4.05;;
37049;SDS011;22958;51.232;6.826;2023-08-12T14:00:40;9.73;;;4.53;;
37049;SDS011;22958;51.232;6.826;2023-08-12T14:03:06;6.40;;;3.57;;
37049;SDS011;22958;51.232;6.826;2023-08-12T14:05:31;7.73;;;3.93;;
37049;SDS011;22958;51.232;6.826;2023-08-12T14:07:57;4.40;;;3.97;;
37049;SDS011;22958;51.232;6.826;2023-08-12T14:10:23;6.50;;;3.97;;
37049;SDS011;22958;51.232;6.826;2023-08-12T14:12:49;7.70;;;4.13;;
37049;SDS011;22958;51.232;6.826;2023-08-12T14:15:15;4.80;;;3.73;;
37049;SDS011;22958;51.232;6.826;2023-08-12T14:17:40;5.50;;;3.67;;
37049;SDS011;22958;51.232;6.826;2023-08-12T14:20:06;7.47;;;3.57;;
37049;SDS011;22958;51.232;6.826;2023-08-12T14:22:33;4.28;;;3.47;;
37049;SDS011;22958;51.232;6.826;2023-08-12T14:25:00;5.45;;;3.38;;
37049;SDS011;22958;51.232;6.826;2023-08-12T14:27:26;4.43;;;3.35;;
37049;SDS011;22958;51.232;6.826;2023-08-12T14:29:52;3.23;;;2.37;;
37049;SDS011;22958;51.232;6.826;2023-08-12T14:32:17;3.57;;;2.57;;
37049;SDS011;22958;51.232;6.826;2023-08-12T14:37:11;3.92;;;2.40;;
37049;SDS011;22958;51.232;6.826;2023-08-12T14:39:37;3.17;;;2.15;;
37049;SDS011;22958;51.232;6.826;2023-08-12T14:42:02;3.08;;;1.80;;
37049;SDS011;22958;51.232;6.826;2023-08-12T14:44:29;3.40;;;1.85;;
37049;SDS011;22958;51.232;6.826;2023-08-12T14:46:56;4.32;;;1.88;;
37049;SDS011;22958;51.232;6.826;2023-08-12T14:49:25;5.40;;;2.13;;
37049;SDS011;22958;51.232;6.826;2023-08-12T14:51:50;5.30;;;1.70;;
37049;SDS011;22958;51.232;6.826;2023-08-12T14:54:16;3.40;;;1.73;;
37049;SDS011;22958;51.232;6.826;2023-08-12T14:56:42;3.90;;;1.70;;
37049;SDS011;22958;51.232;6.826;2023-08-12T15:01:34;4.00;;;1.60;;
37049;SDS011;22958;51.232;6.826;2023-08-12T15:03:59;2.07;;;0.93;;
37049;SDS011;22958;51.232;6.826;2023-08-12T15:06:25;1.98;;;1.20;;
37049;SDS011;22958;51.232;6.826;2023-08-12T15:08:50;4.75;;;1.38;;
37049;SDS011;22958;51.232;6.826;2023-08-12T15:11:16;5.85;;;1.60;;